PWSweather.com
Personal Weather Stations
Station Observations
AF1HS
North Haven, CT 06473

North Haven, CT 06473

Lat: 41.3733, Lon: -72.8413

Elevation: 85.3

Station Type: Oregon Scientific WMR968

http://www.af1hs.com/wx/index.php

Latest ConditionsUpdated 3:00:01 PM EST Friday, Feb 15, 2019
Currently Today's Max Today's Min Today's Average
Temperature 45.3°F7.4°C 45.5°F7.5°C 28.9°F-1.7°C 38.4°F3.6°C
Dew Point 32.2°F0.1°C 32.6°F0.3°C 16.8°F-8.4°C 26.4°F-3.1°C
Winds Calm Calm 6.9 mph -11.1 kmh - - 2.3 mph 3.7 kmh
Wind Gusts -- 12.7 mph20.4 kmh - -
Humidity 60% 67% 58% 62%
Pressure 29.66 in1004.4 mb 30.05 in1017.6 mb 29.66 in1004.4 mb -
Hour Temp Dew Point Humidity Winds Wind Gusts Pressure Precip Precip Rate Daily Precip Total
03:00 PM 45.3°F7.4°C 32.2°F0.1°C 60% Calm Calm -- 29.66 in1004.4 mb - 0.00 in0.0 mm 0.00 in0.0 mm
02:50 PM 45.2°F7.3°C 32.2°F0.1°C 60% Calm Calm -- 29.66 in1004.4 mb - 0.00 in0.0 mm 0.00 in0.0 mm
02:40 PM 45.0°F7.2°C 31.9°F-0.1°C 60% Calm Calm -- 29.66 in1004.4 mb - 0.00 in0.0 mm 0.00 in0.0 mm
02:30 PM 44.9°F7.2°C 31.8°F-0.1°C 60% Calm Calm -- 29.66 in1004.4 mb - 0.00 in0.0 mm 0.00 in0.0 mm
02:20 PM 44.8°F7.1°C 32.1°F0.1°C 61% Calm Calm -- 29.69 in1005.4 mb - 0.00 in0.0 mm 0.00 in0.0 mm
02:10 PM 44.6°F7.0°C 32.0°F0.0°C 61% Calm Calm -- 29.69 in1005.4 mb - 0.00 in0.0 mm 0.00 in0.0 mm
02:00 PM 44.6°F7.0°C 32.0°F0.0°C 61% 3.5 mph SE5.6 kmh SE 3.5 mph5.6 kmh 29.69 in1005.4 mb - 0.00 in0.0 mm 0.00 in0.0 mm
01:50 PM 44.6°F7.0°C 32.0°F0.0°C 61% 3.5 mph S5.6 kmh S 8.1 mph13.0 kmh 29.69 in1005.4 mb - 0.00 in0.0 mm 0.00 in0.0 mm
01:40 PM 44.8°F7.1°C 31.7°F-0.2°C 60% 4.6 mph SSE7.4 kmh SSE 9.2 mph14.8 kmh 29.69 in1005.4 mb - 0.00 in0.0 mm 0.00 in0.0 mm
01:30 PM 44.8°F7.1°C 31.7°F-0.2°C 60% 4.6 mph S7.4 kmh S 9.2 mph14.8 kmh 29.69 in1005.4 mb - 0.00 in0.0 mm 0.00 in0.0 mm
01:20 PM 45.0°F7.2°C 32.0°F0.0°C 60% 5.8 mph S9.3 kmh S 9.2 mph14.8 kmh 29.72 in1006.4 mb - 0.00 in0.0 mm 0.00 in0.0 mm
01:10 PM 45.5°F7.5°C 32.0°F0.0°C 59% 4.6 mph S7.4 kmh S 8.1 mph13.0 kmh 29.72 in1006.4 mb - 0.00 in0.0 mm 0.00 in0.0 mm
01:00 PM 45.5°F7.5°C 32.0°F0.0°C 59% 4.6 mph S7.4 kmh S 5.8 mph9.3 kmh 29.72 in1006.4 mb - 0.00 in0.0 mm 0.00 in0.0 mm
12:50 PM 45.3°F7.4°C 31.8°F-0.1°C 59% 5.8 mph S9.3 kmh S 12.7 mph20.4 kmh 29.69 in1005.4 mb - 0.00 in0.0 mm 0.00 in0.0 mm
12:40 PM 45.3°F7.4°C 31.8°F-0.1°C 59% 4.6 mph SE7.4 kmh SE 5.8 mph9.3 kmh 29.69 in1005.4 mb - 0.00 in0.0 mm 0.00 in0.0 mm
12:30 PM 45.1°F7.3°C 31.7°F-0.2°C 59% 5.8 mph S9.3 kmh S 9.2 mph14.8 kmh 29.75 in1007.5 mb - 0.00 in0.0 mm 0.00 in0.0 mm
12:20 PM 45.0°F7.2°C 31.1°F-0.5°C 58% 4.6 mph SSE7.4 kmh SSE 5.8 mph9.3 kmh 29.75 in1007.5 mb - 0.00 in0.0 mm 0.00 in0.0 mm
12:10 PM 45.0°F7.2°C 31.1°F-0.5°C 58% 4.6 mph SSE7.4 kmh SSE 8.1 mph13.0 kmh 29.75 in1007.5 mb - 0.00 in0.0 mm 0.00 in0.0 mm
12:00 PM 44.9°F7.2°C 31.0°F-0.6°C 58% 4.6 mph S7.4 kmh S 5.8 mph9.3 kmh 29.75 in1007.5 mb - 0.00 in0.0 mm 0.00 in0.0 mm
11:50 AM 44.8°F7.1°C 31.3°F-0.4°C 59% 4.6 mph ESE7.4 kmh ESE 5.8 mph9.3 kmh 29.78 in1008.5 mb - 0.00 in0.0 mm 0.00 in0.0 mm
11:40 AM 44.8°F7.1°C 31.3°F-0.4°C 59% 1.2 mph S1.9 kmh S 5.8 mph9.3 kmh 29.78 in1008.5 mb - 0.00 in0.0 mm 0.00 in0.0 mm
11:30 AM 44.4°F6.9°C 31.0°F-0.6°C 59% 1.2 mph SE1.9 kmh SE 5.8 mph9.3 kmh 29.78 in1008.5 mb - 0.00 in0.0 mm 0.00 in0.0 mm
11:20 AM 44.6°F7.0°C 31.1°F-0.5°C 59% 2.3 mph SE3.7 kmh SE 5.8 mph9.3 kmh 29.78 in1008.5 mb - 0.00 in0.0 mm 0.00 in0.0 mm
11:10 AM 44.6°F7.0°C 31.6°F-0.2°C 60% 1.2 mph S1.9 kmh S 5.8 mph9.3 kmh 29.78 in1008.5 mb - 0.00 in0.0 mm 0.00 in0.0 mm
11:00 AM 44.4°F6.9°C 31.4°F-0.3°C 60% 3.5 mph SE5.6 kmh SE 5.8 mph9.3 kmh 29.81 in1009.5 mb - 0.00 in0.0 mm 0.00 in0.0 mm
10:50 AM 44.2°F6.8°C 31.6°F-0.2°C 61% 3.5 mph S5.6 kmh S 5.8 mph9.3 kmh 29.81 in1009.5 mb - 0.00 in0.0 mm 0.00 in0.0 mm
10:40 AM 44.1°F6.7°C 31.5°F-0.3°C 61% 2.3 mph SE3.7 kmh SE 5.8 mph9.3 kmh 29.81 in1009.5 mb - 0.00 in0.0 mm 0.00 in0.0 mm
10:30 AM 44.1°F6.7°C 31.5°F-0.3°C 61% 2.3 mph SE3.7 kmh SE 3.5 mph5.6 kmh 29.81 in1009.5 mb - 0.00 in0.0 mm 0.00 in0.0 mm
10:20 AM 44.1°F6.7°C 31.5°F-0.3°C 61% 2.3 mph S3.7 kmh S 5.8 mph9.3 kmh 29.81 in1009.5 mb - 0.00 in0.0 mm 0.00 in0.0 mm
10:10 AM 44.1°F6.7°C 31.9°F-0.1°C 62% 1.2 mph SE1.9 kmh SE 4.6 mph7.4 kmh 29.81 in1009.5 mb - 0.00 in0.0 mm 0.00 in0.0 mm
10:00 AM 44.4°F6.9°C 32.2°F0.1°C 62% 2.3 mph SE3.7 kmh SE 5.8 mph9.3 kmh 29.81 in1009.5 mb - 0.00 in0.0 mm 0.00 in0.0 mm
09:50 AM 44.4°F6.9°C 32.6°F0.3°C 63% 1.2 mph SSE1.9 kmh SSE 5.8 mph9.3 kmh 29.81 in1009.5 mb - 0.00 in0.0 mm 0.00 in0.0 mm
09:40 AM 43.4°F6.3°C 32.4°F0.2°C 65% 2.3 mph E3.7 kmh E 3.5 mph5.6 kmh 29.81 in1009.5 mb - 0.00 in0.0 mm 0.00 in0.0 mm
09:30 AM 42.6°F5.9°C 31.7°F-0.2°C 65% 3.5 mph SE5.6 kmh SE 5.8 mph9.3 kmh 29.84 in1010.5 mb - 0.00 in0.0 mm 0.00 in0.0 mm
09:20 AM 42.1°F5.6°C 31.9°F-0.1°C 67% 4.6 mph SW7.4 kmh SW 5.8 mph9.3 kmh 29.81 in1009.5 mb - 0.00 in0.0 mm 0.00 in0.0 mm
09:10 AM 39.7°F4.3°C 29.3°F-1.5°C 66% 3.5 mph SE5.6 kmh SE 5.8 mph9.3 kmh 29.81 in1009.5 mb - 0.00 in0.0 mm 0.00 in0.0 mm
09:00 AM 38.3°F3.5°C 27.9°F-2.3°C 66% 1.2 mph E1.9 kmh E 3.5 mph5.6 kmh 29.84 in1010.5 mb - 0.00 in0.0 mm 0.00 in0.0 mm
08:50 AM 39.3°F4.1°C 27.7°F-2.4°C 63% Calm Calm -- 29.87 in1011.5 mb - 0.00 in0.0 mm 0.00 in0.0 mm
08:40 AM 39.4°F4.1°C 27.4°F-2.6°C 62% Calm Calm -- 29.87 in1011.5 mb - 0.00 in0.0 mm 0.00 in0.0 mm
08:30 AM 40.1°F4.5°C 28.5°F-1.9°C 63% Calm Calm -- 29.87 in1011.5 mb - 0.00 in0.0 mm 0.00 in0.0 mm
08:20 AM 39.9°F4.4°C 28.3°F-2.1°C 63% Calm Calm -- 29.87 in1011.5 mb - 0.00 in0.0 mm 0.00 in0.0 mm
08:10 AM 39.7°F4.3°C 28.2°F-2.1°C 63% Calm Calm -- 29.87 in1011.5 mb - 0.00 in0.0 mm 0.00 in0.0 mm
08:00 AM 39.4°F4.1°C 28.2°F-2.1°C 64% 2.3 mph S3.7 kmh S 4.6 mph7.4 kmh 29.87 in1011.5 mb - 0.00 in0.0 mm 0.00 in0.0 mm
07:50 AM 38.7°F3.7°C 27.9°F-2.3°C 65% 3.5 mph SSE5.6 kmh SSE 5.8 mph9.3 kmh 29.87 in1011.5 mb - 0.00 in0.0 mm 0.00 in0.0 mm
07:40 AM 37.9°F3.3°C 26.8°F-2.9°C 64% 3.5 mph S5.6 kmh S 5.8 mph9.3 kmh 29.87 in1011.5 mb - 0.00 in0.0 mm 0.00 in0.0 mm
07:30 AM 37.4°F3.0°C 26.3°F-3.2°C 64% 2.3 mph SSE3.7 kmh SSE 5.8 mph9.3 kmh 29.87 in1011.5 mb - 0.00 in0.0 mm 0.00 in0.0 mm
07:20 AM 37.2°F2.9°C 26.2°F-3.2°C 64% 2.3 mph SE3.7 kmh SE 3.5 mph5.6 kmh 29.87 in1011.5 mb - 0.00 in0.0 mm 0.00 in0.0 mm
07:10 AM 37.1°F2.8°C 25.6°F-3.6°C 63% 1.2 mph SSE1.9 kmh SSE 3.5 mph5.6 kmh 29.87 in1011.5 mb - 0.00 in0.0 mm 0.00 in0.0 mm
07:00 AM 37.2°F2.9°C 25.8°F-3.4°C 63% 1.2 mph S1.9 kmh S 2.3 mph3.7 kmh 29.87 in1011.5 mb - 0.00 in0.0 mm 0.00 in0.0 mm
06:50 AM 37.2°F2.9°C 25.8°F-3.4°C 63% Calm Calm 3.5 mph5.6 kmh 29.87 in1011.5 mb - 0.00 in0.0 mm 0.00 in0.0 mm
06:40 AM 36.9°F2.7°C 25.4°F-3.7°C 63% 3.5 mph SE5.6 kmh SE 5.8 mph9.3 kmh 29.87 in1011.5 mb - 0.00 in0.0 mm 0.00 in0.0 mm
06:30 AM 36.7°F2.6°C 25.3°F-3.7°C 63% 2.3 mph ESE3.7 kmh ESE 5.8 mph9.3 kmh 29.87 in1011.5 mb - 0.00 in0.0 mm 0.00 in0.0 mm
06:20 AM 36.7°F2.6°C 25.3°F-3.7°C 63% 4.6 mph SE7.4 kmh SE 6.9 mph11.1 kmh 29.90 in1012.5 mb - 0.00 in0.0 mm 0.00 in0.0 mm
06:10 AM 36.7°F2.6°C 24.9°F-3.9°C 62% 3.5 mph ESE5.6 kmh ESE 3.5 mph5.6 kmh 29.90 in1012.5 mb - 0.00 in0.0 mm 0.00 in0.0 mm
06:00 AM 36.5°F2.5°C 24.7°F-4.1°C 62% 3.5 mph SE5.6 kmh SE 5.8 mph9.3 kmh 29.90 in1012.5 mb - 0.00 in0.0 mm 0.00 in0.0 mm
05:50 AM 36.1°F2.3°C 24.4°F-4.2°C 62% 5.8 mph ENE9.3 kmh ENE 8.1 mph13.0 kmh 29.90 in1012.5 mb - 0.00 in0.0 mm 0.00 in0.0 mm
05:40 AM 36.0°F2.2°C 24.2°F-4.3°C 62% 4.6 mph E7.4 kmh E 8.1 mph13.0 kmh 29.90 in1012.5 mb - 0.00 in0.0 mm 0.00 in0.0 mm
05:30 AM 36.1°F2.3°C 24.4°F-4.2°C 62% 2.3 mph SE3.7 kmh SE -- 29.90 in1012.5 mb - 0.00 in0.0 mm 0.00 in0.0 mm
05:20 AM 36.2°F2.3°C 24.5°F-4.2°C 62% 5.8 mph E9.3 kmh E 8.1 mph13.0 kmh 29.93 in1013.5 mb - 0.00 in0.0 mm 0.00 in0.0 mm
05:10 AM 35.8°F2.1°C 23.6°F-4.7°C 61% 3.5 mph ESE5.6 kmh ESE 8.1 mph13.0 kmh 29.93 in1013.5 mb - 0.00 in0.0 mm 0.00 in0.0 mm
05:00 AM 35.8°F2.1°C 24.1°F-4.4°C 62% 4.6 mph ESE7.4 kmh ESE 8.1 mph13.0 kmh 29.93 in1013.5 mb - 0.00 in0.0 mm 0.00 in0.0 mm
04:50 AM 35.2°F1.8°C 23.5°F-4.7°C 62% 5.8 mph ESE9.3 kmh ESE 8.1 mph13.0 kmh 29.93 in1013.5 mb - 0.00 in0.0 mm 0.00 in0.0 mm
04:40 AM 35.0°F1.7°C 24.0°F-4.4°C 64% 6.9 mph SE11.1 kmh SE 12.7 mph20.4 kmh 29.93 in1013.5 mb - 0.00 in0.0 mm 0.00 in0.0 mm
04:30 AM 34.9°F1.6°C 23.9°F-4.5°C 64% 3.5 mph E5.6 kmh E 3.5 mph5.6 kmh 29.96 in1014.6 mb - 0.00 in0.0 mm 0.00 in0.0 mm
04:20 AM 34.7°F1.5°C 24.1°F-4.4°C 65% 4.6 mph ESE7.4 kmh ESE 9.2 mph14.8 kmh 29.96 in1014.6 mb - 0.00 in0.0 mm 0.00 in0.0 mm
04:10 AM 34.0°F1.1°C 23.4°F-4.8°C 65% 3.5 mph E5.6 kmh E 5.8 mph9.3 kmh 29.96 in1014.6 mb - 0.00 in0.0 mm 0.00 in0.0 mm
04:00 AM 33.8°F1.0°C 23.2°F-4.9°C 65% 2.3 mph SE3.7 kmh SE 5.8 mph9.3 kmh 29.96 in1014.6 mb - 0.00 in0.0 mm 0.00 in0.0 mm
03:50 AM 33.6°F0.9°C 22.7°F-5.2°C 64% 1.2 mph SE1.9 kmh SE 3.5 mph5.6 kmh 29.96 in1014.6 mb - 0.00 in0.0 mm 0.00 in0.0 mm
03:40 AM 33.6°F0.9°C 23.1°F-4.9°C 65% 2.3 mph SE3.7 kmh SE 3.5 mph5.6 kmh 29.96 in1014.6 mb - 0.00 in0.0 mm 0.00 in0.0 mm
03:30 AM 32.3°F0.2°C 21.5°F-5.8°C 64% 2.3 mph SE3.7 kmh SE 5.8 mph9.3 kmh 29.96 in1014.6 mb - 0.00 in0.0 mm 0.00 in0.0 mm
03:20 AM 32.5°F0.3°C 21.3°F-5.9°C 63% 2.3 mph ESE3.7 kmh ESE 3.5 mph5.6 kmh 29.99 in1015.6 mb - 0.00 in0.0 mm 0.00 in0.0 mm
03:00 AM 32.4°F0.2°C 21.2°F-6.0°C 63% Calm Calm -- 29.99 in1015.6 mb - 0.00 in0.0 mm 0.00 in0.0 mm
02:50 AM 31.8°F-0.1°C 20.6°F-6.3°C 63% Calm Calm 3.5 mph5.6 kmh 29.99 in1015.6 mb - 0.00 in0.0 mm 0.00 in0.0 mm
02:40 AM 31.6°F-0.2°C 20.5°F-6.4°C 63% 1.2 mph ESE1.9 kmh ESE 3.5 mph5.6 kmh 29.99 in1015.6 mb - 0.00 in0.0 mm 0.00 in0.0 mm
02:30 AM 31.5°F-0.3°C 20.4°F-6.4°C 63% 2.3 mph ESE3.7 kmh ESE 3.5 mph5.6 kmh 29.99 in1015.6 mb - 0.00 in0.0 mm 0.00 in0.0 mm
02:20 AM 31.2°F-0.4°C 20.1°F-6.6°C 63% 3.5 mph ESE5.6 kmh ESE 4.6 mph7.4 kmh 30.02 in1016.6 mb - 0.00 in0.0 mm 0.00 in0.0 mm
02:10 AM 31.1°F-0.5°C 19.2°F-7.1°C 61% Calm Calm -- 30.02 in1016.6 mb - 0.00 in0.0 mm 0.00 in0.0 mm
02:00 AM 31.0°F-0.6°C 19.5°F-6.9°C 62% Calm Calm -- 30.02 in1016.6 mb - 0.00 in0.0 mm 0.00 in0.0 mm
01:50 AM 28.9°F-1.7°C 17.2°F-8.2°C 61% Calm Calm 5.8 mph9.3 kmh 30.02 in1016.6 mb - 0.00 in0.0 mm 0.00 in0.0 mm
01:40 AM 29.0°F-1.7°C 16.8°F-8.4°C 60% Calm Calm -- 30.02 in1016.6 mb - 0.00 in0.0 mm 0.00 in0.0 mm
01:30 AM 29.3°F-1.5°C 17.5°F-8.1°C 61% Calm Calm -- 30.05 in1017.6 mb - 0.00 in0.0 mm 0.00 in0.0 mm
01:20 AM 29.7°F-1.3°C 17.8°F-7.9°C 61% Calm Calm -- 30.05 in1017.6 mb - 0.00 in0.0 mm 0.00 in0.0 mm
01:10 AM 28.9°F-1.7°C 16.8°F-8.4°C 60% Calm Calm -- 30.05 in1017.6 mb - 0.00 in0.0 mm 0.00 in0.0 mm
01:00 AM 29.1°F-1.6°C 17.0°F-8.3°C 60% Calm Calm -- 30.05 in1017.6 mb - 0.00 in0.0 mm 0.00 in0.0 mm
12:50 AM 29.1°F-1.6°C 17.0°F-8.3°C 60% Calm Calm -- 30.05 in1017.6 mb - 0.00 in0.0 mm 0.00 in0.0 mm
12:40 AM 29.5°F-1.4°C 17.3°F-8.2°C 60% Calm Calm 3.5 mph5.6 kmh 30.05 in1017.6 mb - 0.00 in0.0 mm 0.00 in0.0 mm
12:30 AM 30.0°F-1.1°C 17.8°F-7.9°C 60% Calm Calm 3.5 mph5.6 kmh 30.05 in1017.6 mb - 0.00 in0.0 mm 0.00 in0.0 mm
12:20 AM 30.3°F-0.9°C 18.1°F-7.7°C 60% Calm Calm 2.3 mph3.7 kmh 30.05 in1017.6 mb - 0.00 in0.0 mm 0.00 in0.0 mm
12:10 AM 30.6°F-0.8°C 18.3°F-7.6°C 60% Calm Calm -- 30.05 in1017.6 mb - 0.00 in0.0 mm 0.00 in0.0 mm
12:00 AM 30.4°F-0.9°C 18.1°F-7.7°C 60% Calm Calm -- 30.05 in1017.6 mb - 0.00 in0.0 mm 0.00 in0.0 mm